createdAt,value
2022-11-27T00:00:12.047Z,13.19
2022-11-27T00:00:36.662Z,13.02
2022-11-27T00:00:59.841Z,13.00
2022-11-27T00:01:23.197Z,13.07
2022-11-27T00:01:44.899Z,13.06
2022-11-27T00:02:11.493Z,13.07
2022-11-27T00:02:36.536Z,13.10
2022-11-27T00:03:02.460Z,13.09
2022-11-27T00:03:28.842Z,12.97
2022-11-27T00:03:53.353Z,13.01
2022-11-27T00:04:17.071Z,13.06
2022-11-27T00:04:43.100Z,13.10
2022-11-27T00:05:07.109Z,13.14
2022-11-27T00:05:28.693Z,13.10
2022-11-27T00:05:55.433Z,13.12
2022-11-27T00:06:18.974Z,13.12
2022-11-27T00:06:42.055Z,13.13
2022-11-27T00:07:03.615Z,13.15
2022-11-27T00:07:25.237Z,13.11
2022-11-27T00:07:47.301Z,13.20
2022-11-27T00:08:09.003Z,13.24
2022-11-27T00:08:33.033Z,13.23
2022-11-27T00:08:56.077Z,13.27
2022-11-27T00:09:17.734Z,13.27
2022-11-27T00:09:40.688Z,13.23
2022-11-27T00:10:02.569Z,13.21
2022-11-27T00:10:24.301Z,13.17
2022-11-27T00:10:45.925Z,13.25
2022-11-27T00:11:09.666Z,13.24
2022-11-27T00:11:32.308Z,13.23
2022-11-27T00:11:54.217Z,13.24
2022-11-27T00:12:15.885Z,13.24
2022-11-27T00:12:38.429Z,13.24
2022-11-27T00:13:00.042Z,13.21
2022-11-27T00:13:21.681Z,13.21
2022-11-27T00:13:45.497Z,13.06
2022-11-27T00:14:09.598Z,13.13
2022-11-27T00:14:31.349Z,13.13
2022-11-27T00:14:55.567Z,13.15
2022-11-27T00:15:18.626Z,13.04
2022-11-27T00:15:41.319Z,12.99
2022-11-27T00:16:04.083Z,12.93
2022-11-27T00:16:29.514Z,12.93
2022-11-27T00:16:51.392Z,12.96
2022-11-27T00:17:14.026Z,13.02
2022-11-27T00:17:35.591Z,13.05
2022-11-27T00:17:57.555Z,13.07
2022-11-27T00:18:19.134Z,13.03
2022-11-27T00:18:42.629Z,13.11
2022-11-27T00:19:04.673Z,12.95
2022-11-27T00:19:26.418Z,13.09
2022-11-27T00:19:49.380Z,13.05
2022-11-27T00:20:11.497Z,13.05
2022-11-27T00:20:34.413Z,13.04
2022-11-27T00:20:56.250Z,13.05
2022-11-27T00:21:22.873Z,13.01
2022-11-27T00:21:44.493Z,12.98
2022-11-27T00:22:06.491Z,12.99
2022-11-27T00:22:29.091Z,12.92
2022-11-27T00:22:50.672Z,12.87
2022-11-27T00:23:12.249Z,12.86
2022-11-27T00:23:35.412Z,12.85
2022-11-27T00:24:00.345Z,12.89
2022-11-27T00:24:21.977Z,12.94
2022-11-27T00:24:44.232Z,12.99
2022-11-27T00:25:06.868Z,12.99
2022-11-27T00:25:29.607Z,13.04
2022-11-27T00:25:51.660Z,13.05
2022-11-27T00:26:14.585Z,13.08
2022-11-27T00:26:38.353Z,13.11
2022-11-27T00:27:00.156Z,13.15
2022-11-27T00:27:22.302Z,13.16
2022-11-27T00:27:43.901Z,13.16
2022-11-27T00:28:06.439Z,13.17
2022-11-27T00:28:28.460Z,13.18
2022-11-27T00:28:51.755Z,13.10
2022-11-27T00:29:13.387Z,13.18
2022-11-27T00:29:35.923Z,13.21
2022-11-27T00:29:57.550Z,13.18
2022-11-27T00:30:19.456Z,13.13
2022-11-27T00:30:41.086Z,13.09
2022-11-27T00:31:05.477Z,13.09
2022-11-27T00:31:30.353Z,13.12
2022-11-27T00:31:51.924Z,13.16
2022-11-27T00:32:13.560Z,13.15
2022-11-27T00:32:35.294Z,13.15
2022-11-27T00:32:57.909Z,13.14
2022-11-27T00:33:19.454Z,13.15
2022-11-27T00:33:41.132Z,13.12
2022-11-27T00:34:04.656Z,13.08
2022-11-27T00:34:27.308Z,13.11
2022-11-27T00:34:48.969Z,12.92
2022-11-27T00:35:10.747Z,13.01
2022-11-27T00:35:32.476Z,12.97
2022-11-27T00:35:55.023Z,13.03
2022-11-27T00:36:16.635Z,13.03
2022-11-27T00:36:39.248Z,13.06
2022-11-27T00:37:02.995Z,13.09
2022-11-27T00:37:24.567Z,13.06
2022-11-27T00:37:46.159Z,13.04
2022-11-27T00:38:07.838Z,13.05
2022-11-27T00:38:32.528Z,13.06
2022-11-27T00:38:57.710Z,13.09
2022-11-27T00:39:19.566Z,13.12
2022-11-27T00:39:42.050Z,13.12
2022-11-27T00:40:04.270Z,13.09
2022-11-27T00:40:25.934Z,13.11
2022-11-27T00:40:48.901Z,13.12
2022-11-27T00:41:14.287Z,13.08
2022-11-27T00:41:35.934Z,13.10
2022-11-27T00:41:57.540Z,13.11
2022-11-27T00:42:20.150Z,13.10
2022-11-27T00:42:41.766Z,12.81
2022-11-27T00:43:03.403Z,12.84
2022-11-27T00:43:25.060Z,12.84
2022-11-27T00:43:48.034Z,12.86
2022-11-27T00:44:11.412Z,12.95
2022-11-27T00:44:34.322Z,12.97
2022-11-27T00:44:55.940Z,12.97
2022-11-27T00:45:18.550Z,12.82
2022-11-27T00:45:40.131Z,12.80
2022-11-27T00:46:02.071Z,12.86
2022-11-27T00:46:28.790Z,12.85
2022-11-27T00:46:51.556Z,12.77
2022-11-27T00:47:13.226Z,12.82
2022-11-27T00:47:34.773Z,12.79
2022-11-27T00:47:56.335Z,12.86
2022-11-27T00:48:17.953Z,12.76
2022-11-27T00:48:40.721Z,12.80
2022-11-27T00:49:03.863Z,12.77
2022-11-27T00:49:25.521Z,12.81
2022-11-27T00:49:48.047Z,12.85
2022-11-27T00:50:10.156Z,12.88
2022-11-27T00:50:32.284Z,12.94
2022-11-27T00:50:58.880Z,12.89
2022-11-27T00:51:23.405Z,13.03
2022-11-27T00:51:45.050Z,13.06
2022-11-27T00:52:06.629Z,13.07
2022-11-27T00:52:29.175Z,13.11
2022-11-27T00:52:50.783Z,13.14
2022-11-27T00:53:12.371Z,13.08
2022-11-27T00:53:34.414Z,13.03
2022-11-27T00:53:56.567Z,13.04
2022-11-27T00:54:22.588Z,13.05
2022-11-27T00:54:44.371Z,13.00
2022-11-27T00:55:07.171Z,12.97
2022-11-27T00:55:28.791Z,13.02
2022-11-27T00:55:51.336Z,12.94
2022-11-27T00:56:16.352Z,12.94
2022-11-27T00:56:39.393Z,12.99
2022-11-27T00:57:02.070Z,12.98
2022-11-27T00:57:24.998Z,12.96
2022-11-27T00:57:46.604Z,12.97
2022-11-27T00:58:08.397Z,12.98
2022-11-27T00:58:31.431Z,12.97
2022-11-27T00:58:54.248Z,13.09
2022-11-27T00:59:17.152Z,13.10
2022-11-27T00:59:39.732Z,12.96
2022-11-27T01:00:01.378Z,12.97
2022-11-27T01:00:23.321Z,12.90
2022-11-27T01:00:44.959Z,13.03
2022-11-27T01:01:07.735Z,13.01
2022-11-27T01:01:32.114Z,12.95
2022-11-27T01:01:53.752Z,13.01
2022-11-27T01:02:15.393Z,12.89
2022-11-27T01:02:37.110Z,12.88
2022-11-27T01:02:59.854Z,12.91
2022-11-27T01:03:21.758Z,12.86
2022-11-27T01:03:43.435Z,12.95
2022-11-27T01:04:07.070Z,12.77
2022-11-27T01:04:30.237Z,12.82
2022-11-27T01:04:51.863Z,12.82
2022-11-27T01:05:13.577Z,12.85
2022-11-27T01:05:36.683Z,12.89
2022-11-27T01:06:04.417Z,12.93
2022-11-27T01:06:27.390Z,12.88
2022-11-27T01:06:48.963Z,12.90
2022-11-27T01:07:11.595Z,12.77
2022-11-27T01:07:33.313Z,12.60
2022-11-27T01:07:55.088Z,12.73
2022-11-27T01:08:16.763Z,12.76
2022-11-27T01:08:38.638Z,12.77
2022-11-27T01:09:01.946Z,12.86
2022-11-27T01:09:23.850Z,12.88
2022-11-27T01:09:45.454Z,12.82
2022-11-27T01:10:08.351Z,12.88
2022-11-27T01:10:31.018Z,12.78
2022-11-27T01:10:55.042Z,12.67
2022-11-27T01:11:20.358Z,12.70
2022-11-27T01:11:42.323Z,12.71
2022-11-27T01:12:05.619Z,12.69
2022-11-27T01:12:27.170Z,12.71
2022-11-27T01:12:49.763Z,12.63
2022-11-27T01:13:50.098Z,12.68
2022-11-27T01:14:16.202Z,12.73
2022-11-27T01:14:47.398Z,12.72
2022-11-27T01:15:11.486Z,12.70
2022-11-27T01:15:34.692Z,12.72
2022-11-27T01:16:01.111Z,12.65
2022-11-27T01:16:27.677Z,12.68
2022-11-27T01:16:52.187Z,12.66
2022-11-27T01:17:14.918Z,12.66
2022-11-27T01:17:37.735Z,12.66
2022-11-27T01:18:01.404Z,12.58
2022-11-27T01:18:23.923Z,12.61
2022-11-27T01:18:50.062Z,12.63
2022-11-27T01:19:16.269Z,12.64
2022-11-27T01:19:39.123Z,12.56
2022-11-27T01:20:00.760Z,12.62
2022-11-27T01:20:22.817Z,12.42
2022-11-27T01:20:46.309Z,12.38
2022-11-27T01:21:11.262Z,12.46
2022-11-27T01:21:35.444Z,12.43
2022-11-27T01:21:58.275Z,12.46
2022-11-27T01:22:28.671Z,12.53
2022-11-27T01:22:50.368Z,12.61
2022-11-27T01:23:13.332Z,12.63
2022-11-27T01:23:39.473Z,12.66
2022-11-27T01:24:02.482Z,12.57
2022-11-27T01:24:24.647Z,12.63
2022-11-27T01:24:47.428Z,12.57
2022-11-27T01:25:11.110Z,12.63
2022-11-27T01:25:34.386Z,12.64
2022-11-27T01:25:56.002Z,12.58
2022-11-27T01:26:19.226Z,12.58
2022-11-27T01:26:42.009Z,12.66
2022-11-27T01:27:06.246Z,12.60
2022-11-27T01:27:30.049Z,12.73
2022-11-27T01:27:54.116Z,12.78
2022-11-27T01:28:19.784Z,12.82
2022-11-27T01:28:48.188Z,12.81
2022-11-27T01:29:14.627Z,12.83
2022-11-27T01:29:57.304Z,12.87
2022-11-27T01:30:30.158Z,12.96
2022-11-27T01:30:59.281Z,12.93
2022-11-27T01:31:25.098Z,12.93
2022-11-27T01:31:53.301Z,12.89
2022-11-27T01:32:31.405Z,12.94
2022-11-27T01:33:00.562Z,12.86
2022-11-27T01:33:44.346Z,12.84
2022-11-27T01:34:15.135Z,12.85
2022-11-27T01:34:38.197Z,12.74
2022-11-27T01:35:00.186Z,12.68
2022-11-27T01:35:21.762Z,12.67
2022-11-27T01:35:43.488Z,12.65
2022-11-27T01:36:07.614Z,12.68
2022-11-27T01:36:31.946Z,12.70
2022-11-27T01:36:53.622Z,12.73
2022-11-27T01:37:15.196Z,12.73
2022-11-27T01:37:36.758Z,12.78
2022-11-27T01:37:59.417Z,12.75
2022-11-27T01:38:21.080Z,12.78
2022-11-27T01:38:43.132Z,12.78
2022-11-27T01:39:05.445Z,12.74
2022-11-27T01:39:28.042Z,12.76
2022-11-27T01:39:49.614Z,12.75
2022-11-27T01:40:11.898Z,12.78
2022-11-27T01:40:33.713Z,12.81
2022-11-27T01:41:00.243Z,12.77
2022-11-27T01:41:25.826Z,12.83
2022-11-27T01:41:48.508Z,12.85
2022-11-27T01:42:11.922Z,12.83
2022-11-27T01:42:33.500Z,12.78
2022-11-27T01:42:55.114Z,12.57
2022-11-27T01:43:16.846Z,12.68
2022-11-27T01:43:42.831Z,12.68
2022-11-27T01:44:43.166Z,12.65
2022-11-27T01:45:10.549Z,12.59
2022-11-27T01:45:32.263Z,12.48
2022-11-27T01:45:53.847Z,12.45
2022-11-27T01:46:26.522Z,12.51
2022-11-27T01:46:50.323Z,12.58
2022-11-27T01:47:15.295Z,12.57
2022-11-27T01:47:43.720Z,12.66
2022-11-27T01:48:06.442Z,12.71
2022-11-27T01:48:28.059Z,12.64
2022-11-27T01:48:51.593Z,12.70
2022-11-27T01:49:26.096Z,12.70
2022-11-27T01:49:51.439Z,12.68
2022-11-27T01:50:19.011Z,12.43
2022-11-27T01:50:40.753Z,12.51
2022-11-27T01:51:03.455Z,12.52
2022-11-27T01:51:25.473Z,12.39
2022-11-27T01:51:52.036Z,12.45
2022-11-27T01:52:16.908Z,12.29
2022-11-27T01:52:44.392Z,12.34
2022-11-27T01:53:12.820Z,12.44
2022-11-27T01:53:34.749Z,12.47
2022-11-27T01:53:58.262Z,12.53
2022-11-27T01:54:24.834Z,12.49
2022-11-27T01:54:51.616Z,12.56
2022-11-27T01:55:20.235Z,12.60
2022-11-27T01:55:47.423Z,12.64
2022-11-27T01:56:09.934Z,12.69
2022-11-27T01:56:32.557Z,12.65
2022-11-27T01:56:56.944Z,12.64
2022-11-27T01:57:23.492Z,12.63
2022-11-27T01:57:48.582Z,12.65
2022-11-27T01:58:14.385Z,12.65
2022-11-27T01:58:36.624Z,12.52
2022-11-27T01:58:59.285Z,12.41
2022-11-27T01:59:21.696Z,12.46
2022-11-27T01:59:44.200Z,12.56
2022-11-27T02:00:13.018Z,12.62
2022-11-27T02:00:34.648Z,12.62
2022-11-27T02:00:56.509Z,12.63
2022-11-27T02:01:18.278Z,12.65
2022-11-27T02:01:40.983Z,12.67
2022-11-27T02:02:03.625Z,12.74
2022-11-27T02:02:25.786Z,12.73
2022-11-27T02:02:48.085Z,12.72
2022-11-27T02:03:10.925Z,12.70
2022-11-27T02:03:32.988Z,12.77
2022-11-27T02:03:57.941Z,12.76
2022-11-27T02:04:19.626Z,12.63
2022-11-27T02:04:41.509Z,12.70
2022-11-27T02:05:04.577Z,12.66
2022-11-27T02:05:38.939Z,12.75
2022-11-27T02:06:35.872Z,12.65
2022-11-27T02:07:17.819Z,12.53
2022-11-27T02:09:26.458Z,12.69
2022-11-27T02:09:59.082Z,12.53
2022-11-27T02:10:47.044Z,12.61
2022-11-27T02:12:50.285Z,12.58
2022-11-27T02:13:33.448Z,12.48
2022-11-27T02:14:10.720Z,12.45
2022-11-27T02:14:47.761Z,12.53
2022-11-27T02:15:28.925Z,12.56
2022-11-27T02:16:02.175Z,12.46
2022-11-27T02:16:31.695Z,12.51
2022-11-27T02:17:01.485Z,12.55
2022-11-27T02:17:30.673Z,12.55
2022-11-27T02:18:01.950Z,12.46
2022-11-27T02:18:30.735Z,12.30
2022-11-27T02:18:58.840Z,12.30
2022-11-27T02:19:31.340Z,12.39
2022-11-27T02:20:13.076Z,12.50
2022-11-27T02:20:42.987Z,12.52
2022-11-27T02:21:14.834Z,12.49
2022-11-27T02:21:44.465Z,12.52
2022-11-27T02:22:14.467Z,12.46
2022-11-27T02:22:52.362Z,12.49
2022-11-27T02:23:27.171Z,12.52
2022-11-27T02:24:26.310Z,12.22
2022-11-27T02:24:54.486Z,12.43
2022-11-27T02:25:29.273Z,12.49
2022-11-27T02:26:07.345Z,12.49
2022-11-27T02:27:21.175Z,12.50
2022-11-27T02:28:07.251Z,12.61
2022-11-27T02:28:51.759Z,12.68
2022-11-27T02:29:23.752Z,12.71
2022-11-27T02:29:59.891Z,12.71
2022-11-27T02:30:39.405Z,12.73
2022-11-27T02:31:22.149Z,12.67
2022-11-27T02:31:59.770Z,12.62
2022-11-27T02:32:37.635Z,12.66
2022-11-27T02:33:25.213Z,12.71
2022-11-27T02:33:53.961Z,12.73
2022-11-27T02:34:24.338Z,12.75
2022-11-27T02:34:50.854Z,12.69
2022-11-27T02:35:17.867Z,12.66
2022-11-27T02:35:47.030Z,12.71
2022-11-27T02:36:14.109Z,12.67
2022-11-27T02:36:37.964Z,12.64
2022-11-27T02:37:03.059Z,12.63
2022-11-27T02:37:32.602Z,12.67
2022-11-27T02:38:00.080Z,12.61
2022-11-27T02:38:28.067Z,12.58
2022-11-27T02:38:57.519Z,12.61
2022-11-27T02:39:24.528Z,12.57
2022-11-27T02:39:53.943Z,12.65
2022-11-27T02:40:22.657Z,12.59
2022-11-27T02:40:52.365Z,12.55
2022-11-27T02:41:19.716Z,12.52
2022-11-27T02:41:48.513Z,12.52
2022-11-27T02:42:16.589Z,12.52
2022-11-27T02:42:42.533Z,12.64
2022-11-27T02:43:10.720Z,12.64
2022-11-27T02:43:36.816Z,12.62
2022-11-27T02:44:00.449Z,12.54
2022-11-27T02:44:26.072Z,12.51
2022-11-27T02:44:52.766Z,12.49
2022-11-27T02:45:18.747Z,12.50
2022-11-27T02:45:43.451Z,12.34
2022-11-27T02:46:09.067Z,12.36
2022-11-27T02:46:30.915Z,12.48
2022-11-27T02:46:54.329Z,12.51
2022-11-27T02:47:16.094Z,12.50
2022-11-27T02:47:40.973Z,12.47
2022-11-27T02:48:04.193Z,12.42
2022-11-27T02:48:33.094Z,12.52
2022-11-27T02:48:58.702Z,12.52
2022-11-27T02:49:21.697Z,12.50
2022-11-27T02:49:45.685Z,12.49
2022-11-27T02:50:11.331Z,12.48
2022-11-27T02:50:36.214Z,12.40
2022-11-27T02:50:58.981Z,12.23
2022-11-27T02:51:25.368Z,12.29
2022-11-27T02:51:54.631Z,12.16
2022-11-27T02:52:20.202Z,12.22
2022-11-27T02:52:44.252Z,12.24
2022-11-27T02:53:09.502Z,12.27
2022-11-27T02:53:33.848Z,12.28
2022-11-27T02:53:59.892Z,12.32
2022-11-27T02:54:25.980Z,12.35
2022-11-27T02:54:51.933Z,12.39
2022-11-27T02:55:18.857Z,12.30
2022-11-27T02:55:42.410Z,12.34
2022-11-27T02:56:07.356Z,12.37
2022-11-27T02:56:31.227Z,12.24
2022-11-27T02:56:55.895Z,12.40
2022-11-27T02:57:20.466Z,12.41
2022-11-27T02:57:43.926Z,12.49
2022-11-27T02:58:13.127Z,12.47
2022-11-27T02:58:38.290Z,12.47
2022-11-27T02:59:03.183Z,12.41
2022-11-27T02:59:30.319Z,12.44
2022-11-27T02:59:55.956Z,12.43
2022-11-27T03:00:19.408Z,12.40
2022-11-27T03:00:42.114Z,12.38
2022-11-27T03:01:06.117Z,12.29
2022-11-27T03:01:31.313Z,12.35
2022-11-27T03:01:57.862Z,12.39
2022-11-27T03:02:23.534Z,12.42
2022-11-27T03:02:52.952Z,12.36
2022-11-27T03:03:19.729Z,12.40
2022-11-27T03:03:45.392Z,12.18
2022-11-27T03:04:11.208Z,12.11
2022-11-27T03:04:37.748Z,12.17
2022-11-27T03:05:03.452Z,12.15
2022-11-27T03:05:30.570Z,12.17
2022-11-27T03:05:54.632Z,12.07
2022-11-27T03:06:20.130Z,12.06
2022-11-27T03:06:46.946Z,12.04
2022-11-27T03:07:14.731Z,12.00
2022-11-27T03:07:41.459Z,12.04
2022-11-27T03:08:08.005Z,12.12
2022-11-27T03:08:33.403Z,12.10
2022-11-27T03:09:00.491Z,12.14
2022-11-27T03:09:27.743Z,12.15
2022-11-27T03:09:54.193Z,12.20
2022-11-27T03:10:20.488Z,12.22
2022-11-27T03:10:48.209Z,12.28
2022-11-27T03:11:13.227Z,12.23
2022-11-27T03:11:36.343Z,12.31
2022-11-27T03:11:58.822Z,12.29
2022-11-27T03:12:20.713Z,12.28
2022-11-27T03:12:43.283Z,12.27
2022-11-27T03:13:04.978Z,12.24
2022-11-27T03:13:28.020Z,12.18
2022-11-27T03:13:53.866Z,12.16
2022-11-27T03:14:17.343Z,12.13
2022-11-27T03:14:42.074Z,12.04
2022-11-27T03:15:04.775Z,12.11
2022-11-27T03:15:33.221Z,12.00
2022-11-27T03:16:03.646Z,11.98
2022-11-27T03:16:34.377Z,12.03
2022-11-27T03:17:05.550Z,12.15
2022-11-27T03:17:40.670Z,12.17
2022-11-27T03:18:13.560Z,12.22
2022-11-27T03:18:39.441Z,12.19
2022-11-27T03:19:11.584Z,12.13
2022-11-27T03:19:42.859Z,12.13
2022-11-27T03:20:12.016Z,12.20
2022-11-27T03:20:40.543Z,12.12
2022-11-27T03:21:09.258Z,12.17
2022-11-27T03:21:37.812Z,12.22
2022-11-27T03:22:01.530Z,12.08
2022-11-27T03:22:23.301Z,12.11
2022-11-27T03:22:46.161Z,12.14
2022-11-27T03:23:07.776Z,12.17
2022-11-27T03:23:29.579Z,12.09
2022-11-27T03:23:51.483Z,12.03
2022-11-27T03:24:14.387Z,12.06
2022-11-27T03:24:36.209Z,12.12
2022-11-27T03:24:59.034Z,12.15
2022-11-27T03:25:21.730Z,12.08
2022-11-27T03:25:43.391Z,12.09
2022-11-27T03:26:05.405Z,12.08
2022-11-27T03:26:27.324Z,12.06
2022-11-27T03:26:50.255Z,12.08
2022-11-27T03:27:15.269Z,11.99
2022-11-27T03:27:43.367Z,11.95
2022-11-27T03:28:10.465Z,12.00
2022-11-27T03:28:33.146Z,11.88
2022-11-27T03:28:56.968Z,11.88
2022-11-27T03:29:23.368Z,11.90
2022-11-27T03:29:50.827Z,11.82
2022-11-27T03:30:15.304Z,11.80
2022-11-27T03:30:37.006Z,11.79
2022-11-27T03:30:58.821Z,11.85
2022-11-27T03:31:23.604Z,11.77
2022-11-27T03:31:46.447Z,11.90
2022-11-27T03:32:08.557Z,11.93
2022-11-27T03:32:38.035Z,11.97
2022-11-27T03:33:03.850Z,11.89
2022-11-27T03:33:25.702Z,12.00
2022-11-27T03:33:47.551Z,11.94
2022-11-27T03:34:09.195Z,12.05
2022-11-27T03:34:32.644Z,12.05
2022-11-27T03:34:55.313Z,11.98
2022-11-27T03:35:19.937Z,12.09
2022-11-27T03:35:42.563Z,12.11
2022-11-27T03:36:11.957Z,12.10
2022-11-27T03:36:33.570Z,12.13
2022-11-27T03:36:55.284Z,12.18
2022-11-27T03:37:18.049Z,12.18
2022-11-27T03:37:39.901Z,12.14
2022-11-27T03:38:01.519Z,12.10
2022-11-27T03:38:23.198Z,12.08
2022-11-27T03:38:47.944Z,12.08
2022-11-27T03:39:09.783Z,12.15
2022-11-27T03:39:32.234Z,11.92
2022-11-27T03:39:54.230Z,11.72
2022-11-27T03:40:18.788Z,11.98
2022-11-27T03:40:49.258Z,12.00
2022-11-27T03:41:30.082Z,12.00
2022-11-27T03:42:03.479Z,11.83
2022-11-27T03:42:29.266Z,11.86
2022-11-27T03:42:59.165Z,11.89
2022-11-27T03:43:28.667Z,11.92
2022-11-27T03:43:58.323Z,11.77
2022-11-27T03:44:26.007Z,11.89
2022-11-27T03:44:59.610Z,11.93
2022-11-27T03:45:30.215Z,12.04
2022-11-27T03:45:59.129Z,12.03
2022-11-27T03:46:29.620Z,11.92
2022-11-27T03:47:05.195Z,12.03
2022-11-27T03:47:42.270Z,11.96
2022-11-27T03:48:27.402Z,12.05
2022-11-27T03:48:55.464Z,12.06
2022-11-27T03:49:26.104Z,12.08
2022-11-27T03:50:02.206Z,12.10
2022-11-27T03:50:38.066Z,12.09
2022-11-27T03:51:13.049Z,12.07
2022-11-27T03:51:46.635Z,12.05
2022-11-27T03:52:19.044Z,11.99
2022-11-27T03:52:50.167Z,12.05
2022-11-27T03:53:19.473Z,12.03
2022-11-27T03:53:51.554Z,12.04
2022-11-27T03:54:24.722Z,11.85
2022-11-27T03:54:57.538Z,12.06
2022-11-27T03:55:28.624Z,11.94
2022-11-27T03:56:06.815Z,12.04
2022-11-27T03:56:38.130Z,12.07
2022-11-27T03:57:06.343Z,12.08
2022-11-27T03:57:41.770Z,12.03
2022-11-27T03:58:06.825Z,12.04
2022-11-27T03:58:34.237Z,12.07
2022-11-27T03:59:01.987Z,11.99
2022-11-27T03:59:29.329Z,12.06
2022-11-27T04:00:02.880Z,12.00
2022-11-27T04:00:30.269Z,12.06
2022-11-27T04:00:53.715Z,12.04
2022-11-27T04:01:20.560Z,11.94
2022-11-27T04:01:42.509Z,12.11
2022-11-27T04:02:04.217Z,11.96
2022-11-27T04:02:39.164Z,12.02
2022-11-27T04:03:23.515Z,12.03
2022-11-27T04:03:48.355Z,11.98
2022-11-27T04:04:10.056Z,11.95
2022-11-27T04:04:36.139Z,12.01
2022-11-27T04:05:26.671Z,12.02
2022-11-27T04:05:50.913Z,12.07
2022-11-27T04:06:16.405Z,11.94
2022-11-27T04:06:38.297Z,11.95
2022-11-27T04:06:59.940Z,11.90
2022-11-27T04:07:55.434Z,11.80
2022-11-27T04:08:19.734Z,11.81
2022-11-27T04:08:50.509Z,11.80
2022-11-27T04:09:13.231Z,11.79
2022-11-27T04:09:34.862Z,11.86
2022-11-27T04:11:39.128Z,11.93
2022-11-27T04:12:06.402Z,11.91
2022-11-27T04:12:37.607Z,11.91
2022-11-27T04:13:04.808Z,11.93
2022-11-27T04:13:58.530Z,12.03
2022-11-27T04:14:32.862Z,11.90
2022-11-27T04:15:02.665Z,11.94
2022-11-27T04:15:36.315Z,11.99
2022-11-27T04:16:08.491Z,12.01
2022-11-27T04:17:02.591Z,11.99
2022-11-27T04:17:25.679Z,11.84
2022-11-27T04:17:56.571Z,11.92
2022-11-27T04:19:04.227Z,11.81
2022-11-27T04:19:42.532Z,11.92
2022-11-27T04:20:12.635Z,11.99
2022-11-27T04:20:38.218Z,11.95
2022-11-27T04:20:59.853Z,12.02
2022-11-27T04:21:21.525Z,12.07
2022-11-27T04:21:44.072Z,12.01
2022-11-27T04:22:05.688Z,12.07
2022-11-27T04:22:27.291Z,12.05
2022-11-27T04:22:49.004Z,12.06
2022-11-27T04:23:11.613Z,12.04
2022-11-27T04:23:33.158Z,11.91
2022-11-27T04:23:54.785Z,12.02
2022-11-27T04:24:16.491Z,12.01
2022-11-27T04:24:38.227Z,12.06
2022-11-27T04:25:00.927Z,12.09
2022-11-27T04:25:22.834Z,12.00
2022-11-27T04:25:44.469Z,11.99
2022-11-27T04:26:06.095Z,12.02
2022-11-27T04:26:28.615Z,11.91
2022-11-27T04:26:50.144Z,11.89
2022-11-27T04:27:11.783Z,11.93
2022-11-27T04:27:33.622Z,11.96
2022-11-27T04:27:56.368Z,12.06
2022-11-27T04:28:18.183Z,12.07
2022-11-27T04:28:39.788Z,12.08
2022-11-27T04:29:01.413Z,12.07
2022-11-27T04:29:23.013Z,12.06
2022-11-27T04:29:45.604Z,11.98
2022-11-27T04:30:09.749Z,11.87
2022-11-27T04:30:31.503Z,11.92
2022-11-27T04:30:54.702Z,12.00
2022-11-27T04:31:19.382Z,12.08
2022-11-27T04:31:55.423Z,11.80
2022-11-27T04:32:26.689Z,11.81
2022-11-27T04:32:59.293Z,11.57
2022-11-27T04:33:23.147Z,11.61
2022-11-27T04:33:57.140Z,11.72
2022-11-27T04:34:24.731Z,11.69
2022-11-27T04:35:05.613Z,11.77
2022-11-27T04:35:38.845Z,11.83
2022-11-27T04:36:05.909Z,11.89
2022-11-27T04:36:39.024Z,11.93
2022-11-27T04:37:11.704Z,11.89
2022-11-27T04:37:57.287Z,11.99
2022-11-27T04:38:35.333Z,11.97
2022-11-27T04:39:29.938Z,11.95
2022-11-27T04:40:04.087Z,11.96
2022-11-27T04:40:33.869Z,12.02
2022-11-27T04:41:06.663Z,11.97
2022-11-27T04:41:29.659Z,11.73
2022-11-27T04:41:51.264Z,11.82
2022-11-27T04:42:13.790Z,11.83
2022-11-27T04:42:35.409Z,11.85
2022-11-27T04:42:57.029Z,11.89
2022-11-27T04:43:18.943Z,11.95
2022-11-27T04:43:40.603Z,11.84
2022-11-27T04:44:03.147Z,11.57
2022-11-27T04:44:24.755Z,11.66
2022-11-27T04:44:46.293Z,11.75
2022-11-27T04:45:10.470Z,11.74
2022-11-27T04:45:33.117Z,11.74
2022-11-27T04:45:54.673Z,11.72
2022-11-27T04:46:16.395Z,11.69
2022-11-27T04:46:38.221Z,11.74
2022-11-27T04:47:00.933Z,11.70
2022-11-27T04:47:22.651Z,11.73
2022-11-27T04:47:44.339Z,11.69
2022-11-27T04:48:06.422Z,11.73
2022-11-27T04:48:28.964Z,11.77
2022-11-27T04:48:50.530Z,11.77
2022-11-27T04:49:12.378Z,11.81
2022-11-27T04:49:34.047Z,11.81
2022-11-27T04:49:56.694Z,11.80
2022-11-27T04:50:18.536Z,11.75
2022-11-27T04:50:40.137Z,11.82
2022-11-27T04:51:02.668Z,11.76
2022-11-27T04:51:24.712Z,11.70
2022-11-27T04:51:46.380Z,11.77
2022-11-27T04:52:08.065Z,11.76
2022-11-27T04:52:30.630Z,11.79
2022-11-27T04:52:52.265Z,11.80
2022-11-27T04:53:13.878Z,11.87
2022-11-27T04:53:35.443Z,11.88
2022-11-27T04:53:58.374Z,11.91
2022-11-27T04:54:20.059Z,11.92
2022-11-27T04:54:41.861Z,11.86
2022-11-27T04:55:03.909Z,11.78
2022-11-27T04:55:25.601Z,11.76
2022-11-27T04:55:48.222Z,11.81
2022-11-27T04:56:09.873Z,11.78
2022-11-27T04:56:31.481Z,11.83
2022-11-27T04:56:53.137Z,11.79
2022-11-27T04:57:14.741Z,11.84
2022-11-27T04:57:37.322Z,11.78
2022-11-27T04:57:58.922Z,11.81
2022-11-27T04:58:20.479Z,11.53
2022-11-27T04:58:43.022Z,11.57
2022-11-27T04:59:05.047Z,11.63
2022-11-27T04:59:26.662Z,11.72
2022-11-27T04:59:48.273Z,11.71
2022-11-27T05:00:13.646Z,11.74
2022-11-27T05:00:35.349Z,11.73
2022-11-27T05:00:56.988Z,11.74
2022-11-27T05:01:18.955Z,11.69
2022-11-27T05:01:41.539Z,11.60
2022-11-27T05:02:03.152Z,11.65
2022-11-27T05:02:24.892Z,11.66
2022-11-27T05:02:46.639Z,11.63
2022-11-27T05:03:09.505Z,11.62
2022-11-27T05:03:31.050Z,11.65
2022-11-27T05:03:52.622Z,11.65
2022-11-27T05:04:14.541Z,11.61
2022-11-27T05:04:37.971Z,11.53
2022-11-27T05:04:59.668Z,11.53
2022-11-27T05:05:21.320Z,11.50
2022-11-27T05:05:42.959Z,11.54
2022-11-27T05:06:04.924Z,11.59
2022-11-27T05:06:29.041Z,11.39
2022-11-27T05:06:50.620Z,11.39
2022-11-27T05:07:12.332Z,11.42
2022-11-27T05:07:34.117Z,11.57
2022-11-27T05:07:56.799Z,11.49
2022-11-27T05:08:18.444Z,11.56
2022-11-27T05:08:40.113Z,11.60
2022-11-27T05:09:02.246Z,11.68
2022-11-27T05:09:25.058Z,11.63
2022-11-27T05:09:46.763Z,11.69
2022-11-27T05:10:09.402Z,11.73
2022-11-27T05:10:31.052Z,11.80
2022-11-27T05:11:01.005Z,11.79
2022-11-27T05:11:25.003Z,11.74
2022-11-27T05:11:46.590Z,11.46
2022-11-27T05:12:09.207Z,11.54
2022-11-27T05:12:30.812Z,11.53
2022-11-27T05:12:52.411Z,11.55
2022-11-27T05:13:13.974Z,11.59
2022-11-27T05:13:36.859Z,11.63
2022-11-27T05:14:15.999Z,11.57
2022-11-27T05:14:37.795Z,11.63
2022-11-27T05:15:04.165Z,11.69
2022-11-27T05:15:28.638Z,11.69
2022-11-27T05:15:50.273Z,11.73
2022-11-27T05:16:11.983Z,11.66
2022-11-27T05:16:33.709Z,11.42
2022-11-27T05:16:58.253Z,11.44
2022-11-27T05:17:19.941Z,11.52
2022-11-27T05:17:41.548Z,11.56
2022-11-27T05:18:04.255Z,11.71
2022-11-27T05:18:25.854Z,11.75
2022-11-27T05:18:47.565Z,11.79
2022-11-27T05:19:10.933Z,11.88
2022-11-27T05:19:32.735Z,11.90
2022-11-27T05:19:54.305Z,11.98
2022-11-27T05:20:16.908Z,11.97
2022-11-27T05:20:38.510Z,11.96
2022-11-27T05:21:01.629Z,12.02
2022-11-27T05:21:23.183Z,12.03
2022-11-27T05:21:46.638Z,11.93
2022-11-27T05:22:08.480Z,11.71
2022-11-27T05:22:30.141Z,11.61
2022-11-27T05:22:52.697Z,11.70
2022-11-27T05:23:14.913Z,11.71
2022-11-27T05:23:36.509Z,11.79
2022-11-27T05:23:58.238Z,11.75
2022-11-27T05:24:23.444Z,11.77
2022-11-27T05:24:45.124Z,11.79
2022-11-27T05:25:07.038Z,11.80
2022-11-27T05:25:29.618Z,11.75
2022-11-27T05:25:51.389Z,11.74
2022-11-27T05:26:12.931Z,11.76
2022-11-27T05:26:34.723Z,11.78
2022-11-27T05:26:58.013Z,11.80
2022-11-27T05:27:19.666Z,11.87
2022-11-27T05:27:41.310Z,11.84
2022-11-27T05:28:02.942Z,11.82
2022-11-27T05:28:27.062Z,11.76
2022-11-27T05:28:48.870Z,11.83
2022-11-27T05:29:11.375Z,11.87
2022-11-27T05:29:33.027Z,11.90
2022-11-27T05:29:55.631Z,12.01
2022-11-27T05:30:17.415Z,11.98
2022-11-27T05:30:40.357Z,12.03
2022-11-27T05:31:02.032Z,11.96
2022-11-27T05:31:23.847Z,12.01
2022-11-27T05:31:46.683Z,12.06
2022-11-27T05:32:08.359Z,12.05
2022-11-27T05:32:29.927Z,12.09
2022-11-27T05:32:51.503Z,12.11